Weather History for EHEH - February, 2014

Change the Weather History Date:

Wednesday, February 19, 2014

  Actual Average Record
Temperature  
Mean Temperature 46 °F -  
Max Temperature 51 °F 47 °F 51 °F (2014)
Min Temperature 42 °F 34 °F 24 °F (2003)
Degree Days  
Heating Degree Days 18    
Moisture  
Dew Point 42 °F    
Average Humidity 86    
Maximum Humidity 93    
Minimum Humidity 67    
Precipitation  
Precipitation 0.00 in - - ()
Sea Level Pressure  
Sea Level Pressure 29.88 in    
Wind  
Wind Speed 9 mph ()    
Max Wind Speed 16 mph    
Max Gust Speed -    
Visibility 5.8 miles    
Events Rain    
Averages and records for this station are not official NWS values.
T = Trace of Precipitation, MM = Missing Value Source: Averaged Metar Reports

Daily Weather History Graph

Daily Weather History Graph

Search for Another Location

Airport or City:

Trip Planner

Search our weather history database for the weather conditions in past years. The results will help you decide how hot, cold, wet, or windy it might be!

Date:

Astronomy

Feb. 19, 2014 Rise Set
Actual Time 7:44 AM CET 6:00 PM CET
Civil Twilight 7:10 AM CET 6:34 PM CET
Nautical Twilight 6:31 AM CET 7:13 PM CET
Astronomical Twilight 5:53 AM CET 7:52 PM CET
Moon 11:15 PM CET (2/19) 9:08 AM CET (2/19)
Length of Visible Light 11h 24m
Length of Day
10h 16m
Waning Gibbous, 82% of the Moon is Illuminated
Feb 19
Waning Gibbous
Feb 22
Last Quarter
Mar 1
New
Mar 8
First Quarter
Mar 16
Full

Hourly Weather History & Observations

Time (CET) Temp. Windchill Dew Point Humidity Pressure Visibility Wind Dir Wind Speed Gust Speed Precip Events Conditions
12:00 AM 43 °F - 41 °F 88% 29.85 in 7 mi South 6.7 mph - - Rain Rain
12:25 AM 42.8 °F 38.6 °F 41.0 °F 93% 29.83 in 6.2 mi South 6.9 mph - N/A   Overcast
12:55 AM 42.8 °F 38.6 °F 41.0 °F 93% 29.83 in 6.2 mi South 6.9 mph - N/A   Mostly Cloudy
12:56 AM 42.8 °F 38.6 °F 41.0 °F 93% 29.83 in 6.2 mi South 6.9 mph - N/A   Overcast
1:00 AM 43 °F - 41 °F 88% 29.85 in 7 mi SSW 6.7 mph - -   Partly Cloudy
1:03 AM 42.8 °F 38.0 °F 41.0 °F 93% 29.83 in 6.2 mi SSW 8.1 mph - N/A   Mostly Cloudy
1:09 AM 42.8 °F 38.0 °F 41.0 °F 93% 29.83 in 3.7 mi SSW 8.1 mph - N/A   Overcast
1:25 AM 42.8 °F 37.0 °F 41.0 °F 93% 29.83 in 3.7 mi SSW 10.4 mph - N/A Rain Rain Showers
1:31 AM 42.8 °F 37.5 °F 41.0 °F 93% 29.83 in 5.6 mi SSW 9.2 mph - N/A Rain Light Rain Showers
1:35 AM 42.8 °F 37.5 °F 41.0 °F 93% 29.83 in 5.6 mi SSW 9.2 mph - N/A   Overcast
1:42 AM 42.8 °F 37.5 °F 41.0 °F 93% 29.83 in 5.6 mi SSW 9.2 mph - N/A   Overcast
1:55 AM 42.8 °F 38.6 °F 41.0 °F 93% 29.83 in 5.0 mi SSW 6.9 mph - N/A   Overcast
2:00 AM 43 °F - 41 °F 90% 29.85 in 5 mi SSW 6.7 mph - - Rain Rain
2:25 AM 42.8 °F 37.5 °F 41.0 °F 93% 29.83 in 5.6 mi SSW 9.2 mph - N/A   Mostly Cloudy
2:29 AM 42.8 °F 38.0 °F 41.0 °F 93% 29.83 in 5.6 mi SSW 8.1 mph - N/A   Overcast
2:45 AM 42.8 °F 37.5 °F 41.0 °F 93% 29.83 in 5.6 mi SSW 9.2 mph - N/A   Mostly Cloudy
2:55 AM 42.8 °F 37.0 °F 41.0 °F 93% 29.83 in 5.6 mi SSW 10.4 mph - N/A   Mostly Cloudy
3:00 AM 43 °F - 41 °F 90% 29.84 in 6 mi SSW 8.9 mph - -   Mist
3:25 AM 42.8 °F 37.5 °F 41.0 °F 93% 29.83 in 3.7 mi SSW 9.2 mph - N/A Rain Rain
3:27 AM 42.8 °F 37.5 °F 41.0 °F 93% 29.83 in 5.0 mi SSW 9.2 mph - N/A Rain Light Rain
3:43 AM 42.8 °F 37.5 °F 41.0 °F 93% 29.83 in 5.0 mi SSW 9.2 mph - N/A   Overcast
3:55 AM 42.8 °F 37.0 °F 41.0 °F 93% 29.83 in 5.0 mi SW 10.4 mph - N/A   Mostly Cloudy
4:00 AM 43 °F - 41 °F 90% 29.84 in 5 mi SW 8.9 mph - - Rain Rain
4:25 AM 42.8 °F 37.0 °F 41.0 °F 93% 29.83 in 6.2 mi SW 10.4 mph - N/A   Overcast
4:26 AM 42.8 °F 37.0 °F 41.0 °F 93% 29.83 in 6.2 mi SW 10.4 mph - N/A   Overcast
4:33 AM 42.8 °F 37.0 °F 41.0 °F 93% 29.83 in 5.6 mi SW 10.4 mph - N/A   Overcast
4:46 AM 42.8 °F 37.5 °F 41.0 °F 93% 29.83 in 5.6 mi SW 9.2 mph - N/A   Overcast
4:47 AM 42.8 °F 37.0 °F 41.0 °F 93% 29.83 in 5.6 mi SW 10.4 mph - N/A   Overcast
4:55 AM 42.8 °F 37.0 °F 41.0 °F 93% 29.83 in 5.6 mi SW 10.4 mph - N/A   Overcast
5:00 AM 43 °F - 41 °F 90% 29.84 in 6 mi SW 8.9 mph - -   Mist
5:25 AM 42.8 °F 37.0 °F 41.0 °F 93% 29.83 in 5.6 mi SW 10.4 mph - N/A   Overcast
5:55 AM 42.8 °F 37.5 °F 41.0 °F 93% 29.83 in 5.0 mi SW 9.2 mph - N/A   Overcast
6:00 AM 44 °F - 41 °F 87% 29.85 in 5 mi SW 8.9 mph - -   Mist
6:07 AM 42.8 °F 37.0 °F 41.0 °F 93% 29.83 in 3.7 mi SW 10.4 mph - N/A   Overcast
6:25 AM 44.6 °F 39.2 °F 41.0 °F 87% 29.83 in 5.0 mi SW 10.4 mph - N/A   Overcast
6:33 AM 44.6 °F 38.8 °F 41.0 °F 87% 29.83 in 4.3 mi SW 11.5 mph - N/A   Overcast
6:55 AM 44.6 °F 38.4 °F 42.8 °F 93% 29.83 in 4.3 mi SW 12.7 mph - N/A   Overcast
7:00 AM 44 °F - 42 °F 89% 29.86 in 4 mi SW 11.2 mph - - Rain Drizzle
7:25 AM 44.6 °F 38.4 °F 42.8 °F 93% 29.83 in 3.7 mi SW 12.7 mph - N/A   Overcast
7:38 AM 44.6 °F 39.2 °F 42.8 °F 93% 29.83 in 3.1 mi SW 10.4 mph - N/A   Overcast
7:39 AM 44.6 °F 39.2 °F 42.8 °F 93% 29.83 in 3.1 mi SW 10.4 mph - N/A   Overcast
7:49 AM 44.6 °F 39.2 °F 42.8 °F 93% 29.83 in 3.1 mi SW 10.4 mph - N/A   Overcast
7:55 AM 44.6 °F 38.8 °F 42.8 °F 93% 29.83 in 3.1 mi SW 11.5 mph - N/A   Overcast
7:57 AM 44.6 °F 39.2 °F 42.8 °F 93% 29.86 in - SW 10.4 mph - N/A   Overcast
8:00 AM 44 °F - 42 °F 91% 29.87 in 3 mi SW 8.9 mph - -   Mist
8:04 AM 44.6 °F 39.7 °F 42.8 °F 93% 29.86 in 3.1 mi SW 9.2 mph - N/A   Overcast
8:08 AM 44.6 °F 39.2 °F 42.8 °F 93% 29.86 in 3.1 mi SW 10.4 mph - N/A   Overcast
8:25 AM 44.6 °F 39.7 °F 42.8 °F 93% 29.86 in 3.1 mi SW 9.2 mph - N/A   Overcast
8:55 AM 44.6 °F 39.7 °F 42.8 °F 93% 29.86 in 3.7 mi WSW 9.2 mph - N/A   Overcast
9:00 AM 45 °F - 42 °F 87% 29.89 in 4 mi WSW 8.9 mph - -   Mist
9:25 AM 44.6 °F 39.2 °F 42.8 °F 93% 29.89 in 3.7 mi SW 10.4 mph - N/A   Overcast
9:55 AM 44.6 °F 39.2 °F 42.8 °F 93% 29.89 in 4.3 mi WSW 10.4 mph - N/A   Overcast
10:00 AM 45 °F - 42 °F 87% 29.91 in 4 mi WSW 11.2 mph - -   Mist
10:25 AM 44.6 °F 39.2 °F 42.8 °F 93% 29.89 in 5.0 mi SW 10.4 mph - N/A   Overcast
10:39 AM 46.4 °F 41.5 °F 42.8 °F 87% 29.89 in 5.6 mi SW 10.4 mph - N/A   Overcast
10:55 AM 46.4 °F 41.5 °F 42.8 °F 87% 29.92 in 5.6 mi SW 10.4 mph - N/A   Overcast
11:00 AM 46 °F - 43 °F 86% 29.92 in 5 mi SW 11.2 mph - -   Mist
11:11 AM 46.4 °F 41.1 °F 42.8 °F 87% 29.92 in 4.3 mi SW 11.5 mph - N/A   Mostly Cloudy
11:25 AM 46.4 °F 40.7 °F 44.6 °F 93% 29.92 in 5.0 mi SW 12.7 mph - N/A   Mostly Cloudy
11:38 AM 48.2 °F - 44.6 °F 87% 29.92 in 5.0 mi SW 12.7 mph - N/A   Mostly Cloudy
11:55 AM 48.2 °F - 44.6 °F 87% 29.92 in 6.2 mi SW 12.7 mph - N/A   Mostly Cloudy
12:00 PM 48 °F - 43 °F 75% 29.93 in 7 mi SW 13.4 mph - -   Scattered Clouds
12:25 PM 48.2 °F - 42.8 °F 82% 29.92 in 6.2 mi WSW 12.7 mph - N/A   Mostly Cloudy
12:29 PM 48.2 °F - 42.8 °F 82% 29.92 in 6.2 mi SW 12.7 mph - N/A   Mostly Cloudy
12:33 PM 50.0 °F - 42.8 °F 76% 29.92 in 6.2 mi SW 13.8 mph - N/A   Mostly Cloudy
12:42 PM 50.0 °F - 42.8 °F 76% 29.92 in 6.2 mi SW 16.1 mph - N/A   Mostly Cloudy
12:46 PM 50.0 °F - 42.8 °F 76% 29.89 in 6.2 mi WSW 15.0 mph - N/A   Partly Cloudy
12:55 PM 48.2 °F - 41.0 °F 76% 29.89 in 6.2 mi WSW 13.8 mph - N/A   Partly Cloudy
12:59 PM 48.2 °F - 42.8 °F 82% 29.89 in 6.2 mi SW 13.8 mph - N/A   Mostly Cloudy
1:00 PM 48 °F - 42 °F 72% 29.92 in 10 mi SW 13.4 mph - -   Partly Cloudy
1:06 PM 48.2 °F - 41.0 °F 76% 29.89 in 6.2 mi SW 13.8 mph - N/A   Mostly Cloudy
1:25 PM 48.2 °F - 41.0 °F 76% 29.89 in 6.2 mi WSW 11.5 mph - N/A   Mostly Cloudy
1:55 PM 50.0 °F - 42.8 °F 76% 29.89 in 6.2 mi SW 13.8 mph - N/A   Scattered Clouds
2:00 PM 50 °F - 42 °F 67% 29.91 in 11 mi SW 13.4 mph - -   Partly Cloudy
2:09 PM 50.0 °F - 41.0 °F 71% 29.89 in 6.2 mi SW 12.7 mph - N/A   Partly Cloudy
2:25 PM 51.8 °F - 42.8 °F 71% 29.89 in 6.2 mi SW 12.7 mph - N/A   Mostly Cloudy
2:35 PM 50.0 °F - 41.0 °F 71% 29.89 in 6.2 mi WSW 10.4 mph - N/A   Overcast
2:55 PM 48.2 °F - 41.0 °F 76% 29.89 in 6.2 mi WSW 11.5 mph - N/A   Overcast
3:00 PM 49 °F - 41 °F 67% 29.91 in 13 mi WSW 11.2 mph - -   Overcast
3:25 PM 48.2 °F - 41.0 °F 76% 29.89 in 6.2 mi SW 9.2 mph - N/A   Overcast
3:37 PM 48.2 °F - 41.0 °F 76% 29.89 in 6.2 mi WSW 10.4 mph - N/A   Mostly Cloudy
3:43 PM 48.2 °F - 41.0 °F 76% 29.89 in 6.2 mi WSW 9.2 mph - N/A Rain Light Rain
3:47 PM 48.2 °F - 41.0 °F 76% 29.89 in 6.2 mi WSW 8.1 mph - N/A   Overcast
3:55 PM 48.2 °F - 41.0 °F 76% 29.89 in 6.2 mi WSW 9.2 mph - N/A   Mostly Cloudy
4:00 PM 48 °F - 42 °F 72% 29.92 in 9 mi WSW 8.9 mph - - Rain Light Rain Showers
4:25 PM 46.4 °F 42.9 °F 42.8 °F 87% 29.89 in 6.2 mi SW 6.9 mph - N/A   Overcast
4:44 PM 48.2 °F - 42.8 °F 82% 29.92 in 6.2 mi WSW 6.9 mph - N/A   Overcast
4:55 PM 48.2 °F - 42.8 °F 82% 29.92 in 6.2 mi WSW 5.8 mph - N/A   Overcast
5:00 PM 47 °F - 42 °F 78% 29.93 in 8 mi SW 6.7 mph - - Rain Rain
5:25 PM 46.4 °F 43.5 °F 42.8 °F 87% 29.92 in 6.2 mi SW 5.8 mph - N/A   Overcast
5:55 PM 46.4 °F 43.5 °F 42.8 °F 87% 29.92 in 6.2 mi SW 5.8 mph - N/A   Overcast
5:59 PM 46.4 °F 43.5 °F 42.8 °F 87% 29.92 in 6.2 mi SW 5.8 mph - N/A   Overcast
6:00 PM 46 °F - 42 °F 81% 29.94 in 7 mi SW 6.7 mph - -   Partly Cloudy
6:25 PM 44.6 °F 42.2 °F 42.8 °F 93% 29.92 in 6.2 mi SW 4.6 mph - N/A   Overcast
6:55 PM 46.4 °F 43.5 °F 42.8 °F 87% 29.92 in 6.2 mi SSW 5.8 mph - N/A   Overcast
7:00 PM 46 °F - 42 °F 80% 29.94 in 7 mi South 4.5 mph - -   Partly Cloudy
7:10 PM 46.4 °F 43.5 °F 42.8 °F 87% 29.92 in 6.2 mi South 5.8 mph - N/A   Overcast
7:25 PM 46.4 °F 44.3 °F 42.8 °F 87% 29.92 in 6.2 mi South 4.6 mph - N/A   Overcast
7:55 PM 46.4 °F 45.2 °F 42.8 °F 87% 29.95 in 6.2 mi South 3.5 mph - N/A   Overcast
8:00 PM 46 °F - 42 °F 80% 29.95 in 7 mi South 4.5 mph - -   Overcast
8:25 PM 46.4 °F 44.3 °F 41.0 °F 81% 29.95 in 6.2 mi SSW 4.6 mph - N/A   Overcast
8:55 PM 44.6 °F 41.4 °F 41.0 °F 87% 29.95 in 6.2 mi SSW 5.8 mph - N/A   Overcast
9:00 PM 46 °F - 41 °F 78% 29.96 in 9 mi SSW 6.7 mph - -   Overcast
9:25 PM 46.4 °F 43.5 °F 41.0 °F 81% 29.95 in 6.2 mi SSW 5.8 mph - N/A   Overcast
9:55 PM 46.4 °F 41.9 °F 41.0 °F 81% 29.95 in 6.2 mi SSW 9.2 mph - N/A   Overcast
10:00 PM 46 °F - 41 °F 78% 29.96 in 9 mi SSW 8.9 mph - -   Overcast
10:25 PM 46.4 °F 42.4 °F 41.0 °F 81% 29.95 in 6.2 mi SSW 8.1 mph - N/A   Overcast
10:28 PM 46.4 °F 42.4 °F 41.0 °F 81% 29.95 in 6.2 mi SSW 8.1 mph - N/A   Overcast
10:55 PM 46.4 °F 42.4 °F 41.0 °F 81% 29.95 in 6.2 mi SSW 8.1 mph - N/A   Overcast
10:56 PM 46.4 °F 42.4 °F 41.0 °F 81% 29.95 in 6.2 mi SSW 8.1 mph - N/A   Overcast
11:00 PM 46 °F - 41 °F 77% 29.96 in 11 mi SSW 8.9 mph - -   Overcast
11:25 PM 46.4 °F 42.4 °F 41.0 °F 81% 29.95 in 6.2 mi SSW 8.1 mph - N/A   Overcast
11:55 PM 46.4 °F 41.9 °F 41.0 °F 81% 29.95 in 6.2 mi SSW 9.2 mph - N/A   Overcast